sensor_id;sensor_type;location;lat;lon;timestamp;pressure;altitude;pressure_sealevel;temperature;humidity
71559;BME280;59382;43.852;25.952;2023-06-10T00:01:44;100624.22;;;24.49;40.17
71559;BME280;59382;43.852;25.952;2023-06-10T00:04:14;100616.84;;;24.45;40.18
71559;BME280;59382;43.852;25.952;2023-06-10T00:06:40;100618.28;;;24.42;40.25
71559;BME280;59382;43.852;25.952;2023-06-10T00:09:06;100630.47;;;24.41;40.49
71559;BME280;59382;43.852;25.952;2023-06-10T00:11:37;100629.22;;;24.34;40.75
71559;BME280;59382;43.852;25.952;2023-06-10T00:14:03;100632.88;;;24.29;41.18
71559;BME280;59382;43.852;25.952;2023-06-10T00:16:28;100625.72;;;24.15;41.39
71559;BME280;59382;43.852;25.952;2023-06-10T00:18:54;100599.97;;;23.87;41.93
71559;BME280;59382;43.852;25.952;2023-06-10T00:21:35;100621.25;;;24.00;42.29
71559;BME280;59382;43.852;25.952;2023-06-10T00:24:09;100611.97;;;23.96;43.01
71559;BME280;59382;43.852;25.952;2023-06-10T00:26:40;100619.09;;;23.97;42.91
71559;BME280;59382;43.852;25.952;2023-06-10T00:29:06;100614.88;;;23.86;43.42
71559;BME280;59382;43.852;25.952;2023-06-10T00:31:33;100624.78;;;23.87;43.80
71559;BME280;59382;43.852;25.952;2023-06-10T00:33:59;100608.41;;;23.77;43.82
71559;BME280;59382;43.852;25.952;2023-06-10T00:36:24;100608.41;;;23.77;43.93
71559;BME280;59382;43.852;25.952;2023-06-10T00:38:50;100616.88;;;23.81;43.98
71559;BME280;59382;43.852;25.952;2023-06-10T00:41:15;100623.50;;;23.80;44.12
71559;BME280;59382;43.852;25.952;2023-06-10T00:43:41;100621.22;;;23.68;44.29
71559;BME280;59382;43.852;25.952;2023-06-10T00:46:06;100627.56;;;23.69;44.19
71559;BME280;59382;43.852;25.952;2023-06-10T00:48:33;100635.53;;;23.70;44.14
71559;BME280;59382;43.852;25.952;2023-06-10T00:50:59;100628.16;;;23.66;44.09
71559;BME280;59382;43.852;25.952;2023-06-10T00:53:26;100634.19;;;23.68;43.99
71559;BME280;59382;43.852;25.952;2023-06-10T00:55:52;100633.88;;;23.69;44.26
71559;BME280;59382;43.852;25.952;2023-06-10T00:58:18;100627.28;;;23.70;43.77
71559;BME280;59382;43.852;25.952;2023-06-10T01:00:43;100617.44;;;23.64;43.72
71559;BME280;59382;43.852;25.952;2023-06-10T01:03:10;100633.28;;;23.72;43.68
71559;BME280;59382;43.852;25.952;2023-06-10T01:05:38;100618.53;;;23.63;43.67
71559;BME280;59382;43.852;25.952;2023-06-10T01:10:42;100628.38;;;23.69;43.28
71559;BME280;59382;43.852;25.952;2023-06-10T01:13:11;100635.44;;;23.75;43.13
71559;BME280;59382;43.852;25.952;2023-06-10T01:15:39;100630.53;;;23.72;43.12
71559;BME280;59382;43.852;25.952;2023-06-10T01:18:09;100635.91;;;23.64;43.30
71559;BME280;59382;43.852;25.952;2023-06-10T01:20:38;100625.72;;;23.64;43.55
71559;BME280;59382;43.852;25.952;2023-06-10T01:23:06;100627.94;;;23.62;43.59
71559;BME280;59382;43.852;25.952;2023-06-10T01:25:33;100624.06;;;23.63;43.62
71559;BME280;59382;43.852;25.952;2023-06-10T01:33:17;100601.28;;;23.39;43.77
71559;BME280;59382;43.852;25.952;2023-06-10T01:35:44;100618.78;;;23.48;43.57
71559;BME280;59382;43.852;25.952;2023-06-10T01:38:12;100618.78;;;23.48;43.55
71559;BME280;59382;43.852;25.952;2023-06-10T01:40:39;100608.22;;;23.37;43.74
71559;BME280;59382;43.852;25.952;2023-06-10T01:43:05;100618.63;;;23.40;44.09
71559;BME280;59382;43.852;25.952;2023-06-10T01:45:33;100601.44;;;23.29;43.93
71559;BME280;59382;43.852;25.952;2023-06-10T01:47:59;100601.81;;;23.23;43.91
71559;BME280;59382;43.852;25.952;2023-06-10T01:50:24;100601.56;;;23.19;43.87
71559;BME280;59382;43.852;25.952;2023-06-10T01:52:50;100602.16;;;23.16;44.11
71559;BME280;59382;43.852;25.952;2023-06-10T01:55:15;100602.59;;;23.23;44.12
71559;BME280;59382;43.852;25.952;2023-06-10T01:57:41;100600.97;;;23.22;43.93
71559;BME280;59382;43.852;25.952;2023-06-10T02:00:07;100598.78;;;23.24;43.95
71559;BME280;59382;43.852;25.952;2023-06-10T02:02:33;100603.16;;;23.25;43.69
71559;BME280;59382;43.852;25.952;2023-06-10T02:04:59;100592.19;;;23.20;43.83
71559;BME280;59382;43.852;25.952;2023-06-10T02:07:25;100606.59;;;23.36;43.82
71559;BME280;59382;43.852;25.952;2023-06-10T02:09:51;100601.88;;;23.36;43.79
71559;BME280;59382;43.852;25.952;2023-06-10T02:12:16;100603.00;;;23.35;43.98
71559;BME280;59382;43.852;25.952;2023-06-10T02:14:41;100596.25;;;23.28;44.09
71559;BME280;59382;43.852;25.952;2023-06-10T02:17:07;100614.72;;;23.27;44.31
71559;BME280;59382;43.852;25.952;2023-06-10T02:19:33;100613.72;;;23.18;44.59
71559;BME280;59382;43.852;25.952;2023-06-10T02:22:01;100627.50;;;22.94;45.09
71559;BME280;59382;43.852;25.952;2023-06-10T02:24:27;100627.50;;;22.71;45.54
71559;BME280;59382;43.852;25.952;2023-06-10T02:26:52;100638.50;;;22.71;45.60
71559;BME280;59382;43.852;25.952;2023-06-10T02:29:18;100636.94;;;22.65;45.77
71559;BME280;59382;43.852;25.952;2023-06-10T02:31:44;100627.47;;;22.47;46.06
71559;BME280;59382;43.852;25.952;2023-06-10T02:34:09;100636.84;;;22.46;46.10
71559;BME280;59382;43.852;25.952;2023-06-10T02:36:35;100644.75;;;22.53;46.01
71559;BME280;59382;43.852;25.952;2023-06-10T02:39:01;100642.84;;;22.53;46.01
71559;BME280;59382;43.852;25.952;2023-06-10T02:41:28;100646.34;;;22.59;45.88
71559;BME280;59382;43.852;25.952;2023-06-10T02:43:54;100668.91;;;22.61;45.78
71559;BME280;59382;43.852;25.952;2023-06-10T02:46:19;100655.13;;;22.61;45.55
71559;BME280;59382;43.852;25.952;2023-06-10T02:48:45;100649.63;;;22.61;45.66
71559;BME280;59382;43.852;25.952;2023-06-10T02:51:11;100650.09;;;22.68;46.09
71559;BME280;59382;43.852;25.952;2023-06-10T02:53:39;100650.09;;;22.68;46.33
71559;BME280;59382;43.852;25.952;2023-06-10T02:56:04;100652.44;;;22.56;46.33
71559;BME280;59382;43.852;25.952;2023-06-10T02:58:30;100659.47;;;22.67;46.49
71559;BME280;59382;43.852;25.952;2023-06-10T03:00:55;100645.78;;;22.62;46.71
71559;BME280;59382;43.852;25.952;2023-06-10T03:03:21;100662.28;;;22.62;46.79
71559;BME280;59382;43.852;25.952;2023-06-10T03:05:48;100657.94;;;22.56;46.97
71559;BME280;59382;43.852;25.952;2023-06-10T03:08:14;100660.47;;;22.52;47.16
71559;BME280;59382;43.852;25.952;2023-06-10T03:10:39;100664.00;;;22.53;47.04
71559;BME280;59382;43.852;25.952;2023-06-10T03:13:05;100644.25;;;22.51;47.21
71559;BME280;59382;43.852;25.952;2023-06-10T03:15:30;100661.88;;;22.45;47.41
71559;BME280;59382;43.852;25.952;2023-06-10T03:17:59;100664.34;;;22.46;47.60
71559;BME280;59382;43.852;25.952;2023-06-10T03:20:25;100647.59;;;22.43;47.54
71559;BME280;59382;43.852;25.952;2023-06-10T03:22:53;100648.66;;;22.47;47.40
71559;BME280;59382;43.852;25.952;2023-06-10T03:25:18;100665.03;;;22.62;47.37
71559;BME280;59382;43.852;25.952;2023-06-10T03:27:46;100662.75;;;22.69;47.31
71559;BME280;59382;43.852;25.952;2023-06-10T03:30:12;100654.56;;;22.64;47.16
71559;BME280;59382;43.852;25.952;2023-06-10T03:32:39;100657.88;;;22.61;47.30
71559;BME280;59382;43.852;25.952;2023-06-10T03:35:06;100648.00;;;22.60;47.29
71559;BME280;59382;43.852;25.952;2023-06-10T03:37:32;100663.34;;;22.66;47.19
71559;BME280;59382;43.852;25.952;2023-06-10T03:39:57;100657.78;;;22.71;47.32
71559;BME280;59382;43.852;25.952;2023-06-10T03:42:23;100654.38;;;22.79;47.19
71559;BME280;59382;43.852;25.952;2023-06-10T03:44:49;100664.72;;;22.87;46.95
71559;BME280;59382;43.852;25.952;2023-06-10T03:47:14;100664.72;;;22.87;47.02
71559;BME280;59382;43.852;25.952;2023-06-10T03:49:40;100658.72;;;22.85;46.97
71559;BME280;59382;43.852;25.952;2023-06-10T03:52:06;100671.06;;;22.87;46.98
71559;BME280;59382;43.852;25.952;2023-06-10T03:54:32;100660.06;;;22.87;46.97
71559;BME280;59382;43.852;25.952;2023-06-10T03:56:59;100658.63;;;22.90;46.75
71559;BME280;59382;43.852;25.952;2023-06-10T03:59:25;100664.34;;;22.98;46.71
71559;BME280;59382;43.852;25.952;2023-06-10T04:01:51;100676.91;;;23.04;46.66
71559;BME280;59382;43.852;25.952;2023-06-10T04:04:16;100678.31;;;23.02;46.68
71559;BME280;59382;43.852;25.952;2023-06-10T04:06:42;100672.94;;;22.92;46.84
71559;BME280;59382;43.852;25.952;2023-06-10T04:09:09;100674.34;;;22.89;46.65
71559;BME280;59382;43.852;25.952;2023-06-10T04:11:35;100693.72;;;23.03;46.76
71559;BME280;59382;43.852;25.952;2023-06-10T04:14:01;100676.72;;;22.96;46.35
71559;BME280;59382;43.852;25.952;2023-06-10T04:16:27;100682.72;;;23.03;46.34
71559;BME280;59382;43.852;25.952;2023-06-10T04:18:52;100703.84;;;23.07;46.20
71559;BME280;59382;43.852;25.952;2023-06-10T04:21:21;100682.22;;;22.96;46.50
71559;BME280;59382;43.852;25.952;2023-06-10T04:23:47;100690.38;;;23.06;46.22
71559;BME280;59382;43.852;25.952;2023-06-10T04:26:12;100681.06;;;23.02;46.21
71559;BME280;59382;43.852;25.952;2023-06-10T04:28:38;100690.25;;;23.16;46.03
71559;BME280;59382;43.852;25.952;2023-06-10T04:31:03;100681.00;;;23.07;45.88
71559;BME280;59382;43.852;25.952;2023-06-10T04:33:30;100679.13;;;23.02;46.27
71559;BME280;59382;43.852;25.952;2023-06-10T04:35:56;100681.13;;;22.97;46.29
71559;BME280;59382;43.852;25.952;2023-06-10T04:38:21;100681.84;;;22.84;46.43
71559;BME280;59382;43.852;25.952;2023-06-10T04:40:47;100683.03;;;22.78;46.62
71559;BME280;59382;43.852;25.952;2023-06-10T04:43:13;100657.59;;;22.62;46.77
71559;BME280;59382;43.852;25.952;2023-06-10T04:45:39;100679.59;;;22.86;46.69
71559;BME280;59382;43.852;25.952;2023-06-10T04:48:05;100678.44;;;22.92;46.38
71559;BME280;59382;43.852;25.952;2023-06-10T04:50:30;100677.41;;;22.88;46.42
71559;BME280;59382;43.852;25.952;2023-06-10T04:52:58;100683.50;;;23.03;46.45
71559;BME280;59382;43.852;25.952;2023-06-10T04:55:24;100671.50;;;22.94;46.20
71559;BME280;59382;43.852;25.952;2023-06-10T04:57:50;100678.53;;;23.05;46.15
71559;BME280;59382;43.852;25.952;2023-06-10T05:00:16;100678.88;;;23.23;46.21
71559;BME280;59382;43.852;25.952;2023-06-10T05:02:42;100676.31;;;23.31;46.04
71559;BME280;59382;43.852;25.952;2023-06-10T05:05:08;100666.03;;;23.37;45.66
71559;BME280;59382;43.852;25.952;2023-06-10T05:07:36;100685.72;;;23.49;45.63
71559;BME280;59382;43.852;25.952;2023-06-10T05:10:02;100685.34;;;23.55;45.84
71559;BME280;59382;43.852;25.952;2023-06-10T05:12:28;100690.91;;;23.50;46.03
71559;BME280;59382;43.852;25.952;2023-06-10T05:14:53;100678.28;;;23.49;46.00
71559;BME280;59382;43.852;25.952;2023-06-10T05:17:19;100688.09;;;23.55;46.07
71559;BME280;59382;43.852;25.952;2023-06-10T05:19:45;100683.63;;;23.59;45.97
71559;BME280;59382;43.852;25.952;2023-06-10T05:22:10;100670.44;;;23.56;45.92
71559;BME280;59382;43.852;25.952;2023-06-10T05:24:36;100677.97;;;23.69;45.93
71559;BME280;59382;43.852;25.952;2023-06-10T05:27:01;100670.75;;;23.73;45.75
71559;BME280;59382;43.852;25.952;2023-06-10T05:29:28;100679.88;;;23.87;45.66
71559;BME280;59382;43.852;25.952;2023-06-10T05:31:53;100691.91;;;23.96;45.60
71559;BME280;59382;43.852;25.952;2023-06-10T05:34:21;100668.50;;;23.94;45.32
71559;BME280;59382;43.852;25.952;2023-06-10T05:36:47;100687.34;;;24.05;45.26
71559;BME280;59382;43.852;25.952;2023-06-10T05:39:12;100675.78;;;24.03;45.21
71559;BME280;59382;43.852;25.952;2023-06-10T05:41:38;100682.38;;;24.07;45.02
71559;BME280;59382;43.852;25.952;2023-06-10T05:44:03;100688.81;;;24.16;44.70
71559;BME280;59382;43.852;25.952;2023-06-10T05:46:29;100684.94;;;24.17;45.32
71559;BME280;59382;43.852;25.952;2023-06-10T05:48:55;100692.69;;;24.15;45.26
71559;BME280;59382;43.852;25.952;2023-06-10T05:51:20;100684.06;;;24.03;45.42
71559;BME280;59382;43.852;25.952;2023-06-10T05:53:46;100695.22;;;23.93;45.98
71559;BME280;59382;43.852;25.952;2023-06-10T05:56:13;100704.06;;;23.95;46.07
71559;BME280;59382;43.852;25.952;2023-06-10T05:58:38;100678.13;;;23.78;45.72
71559;BME280;59382;43.852;25.952;2023-06-10T06:01:04;100704.50;;;24.02;45.91
71559;BME280;59382;43.852;25.952;2023-06-10T06:03:32;100698.91;;;24.07;45.75
71559;BME280;59382;43.852;25.952;2023-06-10T06:05:57;100684.88;;;24.04;45.94
71559;BME280;59382;43.852;25.952;2023-06-10T06:08:23;100704.25;;;24.17;45.87
71559;BME280;59382;43.852;25.952;2023-06-10T06:10:49;100700.28;;;24.23;45.98
71559;BME280;59382;43.852;25.952;2023-06-10T06:13:15;100704.59;;;24.29;45.49
71559;BME280;59382;43.852;25.952;2023-06-10T06:15:41;100672.06;;;24.13;45.59
71559;BME280;59382;43.852;25.952;2023-06-10T06:18:06;100707.75;;;24.36;45.30
71559;BME280;59382;43.852;25.952;2023-06-10T06:20:32;100707.69;;;24.41;45.58
71559;BME280;59382;43.852;25.952;2023-06-10T06:22:57;100683.31;;;24.16;45.69
71559;BME280;59382;43.852;25.952;2023-06-10T06:25:23;100708.66;;;24.32;45.61
71559;BME280;59382;43.852;25.952;2023-06-10T06:27:48;100693.03;;;24.27;45.67
71559;BME280;59382;43.852;25.952;2023-06-10T06:30:14;100703.09;;;24.37;45.40
71559;BME280;59382;43.852;25.952;2023-06-10T06:32:39;100702.84;;;24.33;45.42
71559;BME280;59382;43.852;25.952;2023-06-10T06:35:05;100695.78;;;24.27;45.43
71559;BME280;59382;43.852;25.952;2023-06-10T06:37:33;100685.00;;;24.12;45.97
71559;BME280;59382;43.852;25.952;2023-06-10T06:39:58;100690.41;;;24.04;45.97
71559;BME280;59382;43.852;25.952;2023-06-10T06:42:24;100680.25;;;23.81;45.95
71559;BME280;59382;43.852;25.952;2023-06-10T06:44:49;100682.72;;;23.82;46.23
71559;BME280;59382;43.852;25.952;2023-06-10T06:47:15;100692.03;;;23.86;46.46
71559;BME280;59382;43.852;25.952;2023-06-10T06:49:43;100692.44;;;23.98;46.09
71559;BME280;59382;43.852;25.952;2023-06-10T06:52:08;100690.63;;;24.07;46.26
71559;BME280;59382;43.852;25.952;2023-06-10T06:54:34;100696.81;;;24.18;46.00
71559;BME280;59382;43.852;25.952;2023-06-10T06:56:59;100690.28;;;24.27;45.85
71559;BME280;59382;43.852;25.952;2023-06-10T06:59:25;100705.94;;;24.45;45.43
71559;BME280;59382;43.852;25.952;2023-06-10T07:01:51;100698.63;;;24.54;45.51
71559;BME280;59382;43.852;25.952;2023-06-10T07:04:16;100673.88;;;24.49;45.40
71559;BME280;59382;43.852;25.952;2023-06-10T07:06:42;100676.91;;;24.66;45.23
71559;BME280;59382;43.852;25.952;2023-06-10T07:09:08;100689.28;;;24.82;44.95
71559;BME280;59382;43.852;25.952;2023-06-10T07:11:36;100674.47;;;24.78;45.16
71559;BME280;59382;43.852;25.952;2023-06-10T07:14:01;100685.91;;;24.85;45.12
71559;BME280;59382;43.852;25.952;2023-06-10T07:16:27;100695.72;;;24.91;44.64
71559;BME280;59382;43.852;25.952;2023-06-10T07:18:53;100684.69;;;24.91;44.66
71559;BME280;59382;43.852;25.952;2023-06-10T07:21:18;100681.53;;;24.84;44.79
71559;BME280;59382;43.852;25.952;2023-06-10T07:23:44;100685.28;;;24.88;45.29
71559;BME280;59382;43.852;25.952;2023-06-10T07:26:10;100686.63;;;24.91;44.85
71559;BME280;59382;43.852;25.952;2023-06-10T07:28:42;100692.25;;;24.99;45.13
71559;BME280;59382;43.852;25.952;2023-06-10T07:31:08;100695.94;;;25.09;44.75
71559;BME280;59382;43.852;25.952;2023-06-10T07:33:34;100685.91;;;25.13;44.55
71559;BME280;59382;43.852;25.952;2023-06-10T07:36:00;100666.06;;;25.11;44.35
71559;BME280;59382;43.852;25.952;2023-06-10T07:38:26;100657.69;;;25.16;44.05
71559;BME280;59382;43.852;25.952;2023-06-10T07:40:52;100680.56;;;25.43;43.88
71559;BME280;59382;43.852;25.952;2023-06-10T07:43:18;100679.75;;;25.43;43.76
71559;BME280;59382;43.852;25.952;2023-06-10T07:45:44;100673.00;;;25.49;43.86
71559;BME280;59382;43.852;25.952;2023-06-10T07:48:10;100673.91;;;25.58;43.78
71559;BME280;59382;43.852;25.952;2023-06-10T07:50:35;100681.69;;;25.78;43.86
71559;BME280;59382;43.852;25.952;2023-06-10T07:53:01;100681.06;;;25.81;43.66
71559;BME280;59382;43.852;25.952;2023-06-10T07:55:26;100683.72;;;25.99;43.61
71559;BME280;59382;43.852;25.952;2023-06-10T07:57:53;100660.16;;;25.88;42.95
71559;BME280;59382;43.852;25.952;2023-06-10T08:00:19;100675.50;;;26.16;43.12
71559;BME280;59382;43.852;25.952;2023-06-10T08:02:44;100675.56;;;26.25;42.77
71559;BME280;59382;43.852;25.952;2023-06-10T08:05:10;100673.88;;;26.37;42.44
71559;BME280;59382;43.852;25.952;2023-06-10T08:07:35;100672.16;;;26.50;42.42
71559;BME280;59382;43.852;25.952;2023-06-10T08:10:02;100685.13;;;26.63;42.12
71559;BME280;59382;43.852;25.952;2023-06-10T08:12:28;100670.34;;;26.76;42.17
71559;BME280;59382;43.852;25.952;2023-06-10T08:14:53;100664.50;;;26.86;41.86
71559;BME280;59382;43.852;25.952;2023-06-10T08:17:23;100674.50;;;26.96;41.61
71559;BME280;59382;43.852;25.952;2023-06-10T08:19:49;100676.75;;;26.94;42.08
71559;BME280;59382;43.852;25.952;2023-06-10T08:22:15;100673.31;;;26.88;41.91
71559;BME280;59382;43.852;25.952;2023-06-10T08:24:40;100674.94;;;26.80;41.77
71559;BME280;59382;43.852;25.952;2023-06-10T08:27:06;100678.78;;;26.71;41.93
71559;BME280;59382;43.852;25.952;2023-06-10T08:29:32;100664.53;;;26.55;42.17
71559;BME280;59382;43.852;25.952;2023-06-10T08:31:57;100647.66;;;26.35;42.41
71559;BME280;59382;43.852;25.952;2023-06-10T08:34:23;100670.16;;;26.42;42.33
71559;BME280;59382;43.852;25.952;2023-06-10T08:36:49;100679.09;;;26.39;42.59
71559;BME280;59382;43.852;25.952;2023-06-10T08:39:21;100673.31;;;26.27;42.57
71559;BME280;59382;43.852;25.952;2023-06-10T08:44:31;100673.75;;;26.20;42.63
71559;BME280;59382;43.852;25.952;2023-06-10T08:47:00;100675.09;;;26.23;42.56
71559;BME280;59382;43.852;25.952;2023-06-10T08:49:30;100668.03;;;26.17;42.39
71559;BME280;59382;43.852;25.952;2023-06-10T08:51:59;100673.31;;;26.27;42.36
71559;BME280;59382;43.852;25.952;2023-06-10T08:54:31;100657.25;;;26.07;42.57
71559;BME280;59382;43.852;25.952;2023-06-10T08:56:59;100657.25;;;26.07;42.77
71559;BME280;59382;43.852;25.952;2023-06-10T08:59:25;100653.97;;;26.05;42.82
71559;BME280;59382;43.852;25.952;2023-06-10T09:01:52;100670.94;;;26.12;42.86
71559;BME280;59382;43.852;25.952;2023-06-10T09:04:19;100649.44;;;26.09;43.13
71559;BME280;59382;43.852;25.952;2023-06-10T09:06:46;100630.59;;;26.11;42.75
71559;BME280;59382;43.852;25.952;2023-06-10T09:09:14;100658.44;;;26.45;42.50
71559;BME280;59382;43.852;25.952;2023-06-10T09:11:42;100662.97;;;26.63;42.46
71559;BME280;59382;43.852;25.952;2023-06-10T09:14:07;100645.88;;;26.69;41.86
71559;BME280;59382;43.852;25.952;2023-06-10T09:16:33;100640.22;;;26.83;41.63
71559;BME280;59382;43.852;25.952;2023-06-10T09:18:59;100657.56;;;26.97;41.51
71559;BME280;59382;43.852;25.952;2023-06-10T09:21:25;100650.22;;;27.01;41.87
71559;BME280;59382;43.852;25.952;2023-06-10T09:23:51;100652.88;;;27.06;41.61
71559;BME280;59382;43.852;25.952;2023-06-10T09:26:18;100611.91;;;26.86;41.38
71559;BME280;59382;43.852;25.952;2023-06-10T09:28:50;100647.31;;;27.06;41.22
71559;BME280;59382;43.852;25.952;2023-06-10T09:31:16;100646.69;;;27.09;41.33
71559;BME280;59382;43.852;25.952;2023-06-10T09:33:47;100647.66;;;27.13;41.63
71559;BME280;59382;43.852;25.952;2023-06-10T09:36:21;100618.97;;;27.09;41.52
71559;BME280;59382;43.852;25.952;2023-06-10T09:38:49;100628.16;;;27.35;41.40
71559;BME280;59382;43.852;25.952;2023-06-10T09:41:16;100621.97;;;27.38;41.22
71559;BME280;59382;43.852;25.952;2023-06-10T09:43:43;100622.47;;;27.40;41.38
71559;BME280;59382;43.852;25.952;2023-06-10T09:46:17;100621.66;;;27.31;41.35
71559;BME280;59382;43.852;25.952;2023-06-10T09:48:44;100628.16;;;27.35;41.38
71559;BME280;59382;43.852;25.952;2023-06-10T09:51:11;100631.44;;;27.54;41.32
71559;BME280;59382;43.852;25.952;2023-06-10T09:53:37;100623.63;;;27.73;41.09
71559;BME280;59382;43.852;25.952;2023-06-10T09:56:02;100629.66;;;27.92;40.44
71559;BME280;59382;43.852;25.952;2023-06-10T09:58:38;100627.03;;;28.04;39.93
71559;BME280;59382;43.852;25.952;2023-06-10T10:01:12;100610.38;;;28.13;40.04
71559;BME280;59382;43.852;25.952;2023-06-10T10:03:45;100608.88;;;28.15;39.70
71559;BME280;59382;43.852;25.952;2023-06-10T10:06:17;100619.78;;;28.29;39.80
71559;BME280;59382;43.852;25.952;2023-06-10T10:08:46;100617.97;;;28.41;39.54
71559;BME280;59382;43.852;25.952;2023-06-10T10:11:16;100618.41;;;28.60;39.29
71559;BME280;59382;43.852;25.952;2023-06-10T10:13:45;100619.00;;;28.75;38.92
71559;BME280;59382;43.852;25.952;2023-06-10T10:16:15;100607.84;;;28.83;39.15
71559;BME280;59382;43.852;25.952;2023-06-10T10:18:46;100618.72;;;28.97;38.45
71559;BME280;59382;43.852;25.952;2023-06-10T10:21:16;100607.28;;;28.98;38.38
71559;BME280;59382;43.852;25.952;2023-06-10T10:24:03;100603.78;;;29.10;38.20
71559;BME280;59382;43.852;25.952;2023-06-10T10:26:32;100606.47;;;29.27;38.27
71559;BME280;59382;43.852;25.952;2023-06-10T10:29:10;100609.25;;;29.27;38.01
71559;BME280;59382;43.852;25.952;2023-06-10T10:31:39;100608.09;;;29.28;37.83
71559;BME280;59382;43.852;25.952;2023-06-10T10:34:12;100606.47;;;29.27;37.38
71559;BME280;59382;43.852;25.952;2023-06-10T10:36:39;100589.63;;;29.23;37.59
71559;BME280;59382;43.852;25.952;2023-06-10T10:39:08;100590.16;;;29.17;36.82
71559;BME280;59382;43.852;25.952;2023-06-10T10:41:39;100595.06;;;29.20;36.16
71559;BME280;59382;43.852;25.952;2023-06-10T10:44:08;100583.66;;;29.13;36.05
71559;BME280;59382;43.852;25.952;2023-06-10T10:46:48;100578.63;;;29.06;36.30
71559;BME280;59382;43.852;25.952;2023-06-10T10:49:15;100560.34;;;29.05;35.90
71559;BME280;59382;43.852;25.952;2023-06-10T10:52:01;100575.81;;;29.15;35.81
71559;BME280;59382;43.852;25.952;2023-06-10T10:54:35;100567.56;;;29.27;35.88
71559;BME280;59382;43.852;25.952;2023-06-10T11:02:34;100567.81;;;29.34;36.04
71559;BME280;59382;43.852;25.952;2023-06-10T11:05:01;100563.88;;;29.35;36.14
71559;BME280;59382;43.852;25.952;2023-06-10T11:07:29;100572.97;;;29.44;35.92
71559;BME280;59382;43.852;25.952;2023-06-10T11:09:59;100569.84;;;29.45;35.99
71559;BME280;59382;43.852;25.952;2023-06-10T11:12:49;100573.53;;;29.37;35.79
71559;BME280;59382;43.852;25.952;2023-06-10T11:15:20;100567.13;;;29.37;35.08
71559;BME280;59382;43.852;25.952;2023-06-10T11:18:12;100562.00;;;29.27;34.65
71559;BME280;59382;43.852;25.952;2023-06-10T11:26:29;100550.88;;;29.27;33.58
71559;BME280;59382;43.852;25.952;2023-06-10T11:33:59;100540.03;;;29.34;33.29
71559;BME280;59382;43.852;25.952;2023-06-10T11:36:26;100525.78;;;29.35;33.15
71559;BME280;59382;43.852;25.952;2023-06-10T11:39:06;100531.75;;;29.46;32.89
71559;BME280;59382;43.852;25.952;2023-06-10T11:41:35;100529.41;;;29.48;32.87
71559;BME280;59382;43.852;25.952;2023-06-10T11:44:08;100526.19;;;29.46;32.85
71559;BME280;59382;43.852;25.952;2023-06-10T11:46:38;100520.88;;;29.53;32.45
71559;BME280;59382;43.852;25.952;2023-06-10T11:49:08;100526.44;;;29.53;32.37
71559;BME280;59382;43.852;25.952;2023-06-10T11:51:39;100514.16;;;29.54;32.63
71559;BME280;59382;43.852;25.952;2023-06-10T11:54:08;100512.13;;;29.63;32.13
71559;BME280;59382;43.852;25.952;2023-06-10T11:56:35;100514.34;;;29.69;32.05
71559;BME280;59382;43.852;25.952;2023-06-10T11:59:03;100507.97;;;29.69;31.58
71559;BME280;59382;43.852;25.952;2023-06-10T12:01:44;100509.38;;;29.75;31.69
71559;BME280;59382;43.852;25.952;2023-06-10T12:04:15;100503.38;;;29.73;31.48
71559;BME280;59382;43.852;25.952;2023-06-10T12:06:51;100508.69;;;29.78;30.54
71559;BME280;59382;43.852;25.952;2023-06-10T12:09:22;100509.88;;;29.77;30.46
71559;BME280;59382;43.852;25.952;2023-06-10T12:11:50;100505.19;;;29.69;29.84
71559;BME280;59382;43.852;25.952;2023-06-10T12:14:52;100498.50;;;29.70;29.82
71559;BME280;59382;43.852;25.952;2023-06-10T12:17:42;100501.63;;;29.68;29.52
71559;BME280;59382;43.852;25.952;2023-06-10T12:20:26;100496.59;;;29.62;29.85
71559;BME280;59382;43.852;25.952;2023-06-10T12:23:21;100488.31;;;29.53;30.01
71559;BME280;59382;43.852;25.952;2023-06-10T12:25:54;100495.66;;;29.58;29.67
71559;BME280;59382;43.852;25.952;2023-06-10T12:28:23;100479.38;;;29.48;29.48
71559;BME280;59382;43.852;25.952;2023-06-10T12:31:06;100490.63;;;29.51;29.75
71559;BME280;59382;43.852;25.952;2023-06-10T12:33:33;100485.63;;;29.45;29.23
71559;BME280;59382;43.852;25.952;2023-06-10T12:39:42;100469.66;;;29.21;29.37
71559;BME280;59382;43.852;25.952;2023-06-10T12:42:37;100482.41;;;29.22;29.25
71559;BME280;59382;43.852;25.952;2023-06-10T12:49:51;100471.41;;;29.26;29.15
71559;BME280;59382;43.852;25.952;2023-06-10T12:55:55;100461.31;;;29.21;29.51
71559;BME280;59382;43.852;25.952;2023-06-10T12:59:01;100460.97;;;29.23;29.66
71559;BME280;59382;43.852;25.952;2023-06-10T13:02:03;100456.66;;;29.13;30.03
71559;BME280;59382;43.852;25.952;2023-06-10T13:05:17;100446.09;;;29.07;30.07
71559;BME280;59382;43.852;25.952;2023-06-10T13:08:53;100459.66;;;29.08;29.99
71559;BME280;59382;43.852;25.952;2023-06-10T13:11:40;100452.59;;;29.11;30.04
71559;BME280;59382;43.852;25.952;2023-06-10T13:14:21;100465.81;;;29.14;30.01
71559;BME280;59382;43.852;25.952;2023-06-10T13:16:47;100453.91;;;29.13;30.04
71559;BME280;59382;43.852;25.952;2023-06-10T13:19:12;100458.16;;;29.11;30.24
71559;BME280;59382;43.852;25.952;2023-06-10T13:21:40;100449.81;;;29.11;30.00
71559;BME280;59382;43.852;25.952;2023-06-10T13:24:06;100456.34;;;29.15;29.96
71559;BME280;59382;43.852;25.952;2023-06-10T13:26:32;100442.88;;;29.17;29.96